sensor_id;sensor_type;location;lat;lon;timestamp;pressure;altitude;pressure_sealevel;temperature;humidity
3844;BME280;1937;51.444;6.484;2023-08-24T00:01:42;69119.69;;;19.40;89.10
3844;BME280;1937;51.444;6.484;2023-08-24T00:04:09;69130.47;;;19.54;88.81
3844;BME280;1937;51.444;6.484;2023-08-24T00:06:36;69146.72;;;19.54;88.50
3844;BME280;1937;51.444;6.484;2023-08-24T00:09:03;69152.19;;;19.52;88.33
3844;BME280;1937;51.444;6.484;2023-08-24T00:11:31;69116.25;;;19.42;88.66
3844;BME280;1937;51.444;6.484;2023-08-24T00:13:57;69130.97;;;19.39;89.12
3844;BME280;1937;51.444;6.484;2023-08-24T00:16:25;69107.03;;;19.32;89.49
3844;BME280;1937;51.444;6.484;2023-08-24T00:18:52;69095.88;;;19.27;89.67
3844;BME280;1937;51.444;6.484;2023-08-24T00:21:19;69063.50;;;19.19;89.67
3844;BME280;1937;51.444;6.484;2023-08-24T00:23:48;69077.41;;;19.17;89.28
3844;BME280;1937;51.444;6.484;2023-08-24T00:26:14;69025.03;;;18.97;89.82
3844;BME280;1937;51.444;6.484;2023-08-24T00:28:43;69027.78;;;18.91;90.15
3844;BME280;1937;51.444;6.484;2023-08-24T00:31:09;68989.38;;;18.85;90.61
3844;BME280;1937;51.444;6.484;2023-08-24T00:33:38;69003.84;;;18.84;90.98
3844;BME280;1937;51.444;6.484;2023-08-24T00:36:05;69015.03;;;18.77;91.25
3844;BME280;1937;51.444;6.484;2023-08-24T00:38:32;68993.56;;;18.77;91.22
3844;BME280;1937;51.444;6.484;2023-08-24T00:40:59;68959.19;;;18.70;91.39
3844;BME280;1937;51.444;6.484;2023-08-24T00:43:26;68947.38;;;18.60;91.71
3844;BME280;1937;51.444;6.484;2023-08-24T00:45:53;68961.88;;;18.48;92.16
3844;BME280;1937;51.444;6.484;2023-08-24T00:48:21;68974.31;;;18.58;91.39
3844;BME280;1937;51.444;6.484;2023-08-24T00:50:52;68938.19;;;18.38;92.27
3844;BME280;1937;51.444;6.484;2023-08-24T00:53:19;68950.91;;;18.36;92.92
3844;BME280;1937;51.444;6.484;2023-08-24T00:55:46;68950.81;;;18.31;93.31
3844;BME280;1937;51.444;6.484;2023-08-24T00:58:13;68969.75;;;18.36;93.61
3844;BME280;1937;51.444;6.484;2023-08-24T01:00:40;68999.81;;;18.47;93.75
3844;BME280;1937;51.444;6.484;2023-08-24T01:03:07;69024.09;;;18.56;93.47
3844;BME280;1937;51.444;6.484;2023-08-24T01:05:34;69061.91;;;18.62;93.61
3844;BME280;1937;51.444;6.484;2023-08-24T01:08:02;69085.72;;;18.75;93.32
3844;BME280;1937;51.444;6.484;2023-08-24T01:10:37;69088.38;;;18.91;92.36
3844;BME280;1937;51.444;6.484;2023-08-24T01:13:08;69108.09;;;18.90;92.71
3844;BME280;1937;51.444;6.484;2023-08-24T01:15:38;69095.28;;;18.88;92.58
3844;BME280;1937;51.444;6.484;2023-08-24T01:18:11;69155.78;;;18.95;92.75
3844;BME280;1937;51.444;6.484;2023-08-24T01:20:40;69162.88;;;19.01;92.87
3844;BME280;1937;51.444;6.484;2023-08-24T01:23:19;69142.81;;;19.11;91.39
3844;BME280;1937;51.444;6.484;2023-08-24T01:25:52;69177.66;;;19.25;90.70
3844;BME280;1937;51.444;6.484;2023-08-24T01:28:21;69144.47;;;19.08;91.06
3844;BME280;1937;51.444;6.484;2023-08-24T01:30:48;69104.28;;;19.00;91.56
3844;BME280;1937;51.444;6.484;2023-08-24T01:33:15;69044.84;;;18.63;92.09
3844;BME280;1937;51.444;6.484;2023-08-24T01:35:41;69024.09;;;18.45;92.37
3844;BME280;1937;51.444;6.484;2023-08-24T01:38:08;68977.75;;;18.46;91.76
3844;BME280;1937;51.444;6.484;2023-08-24T01:40:46;68960.03;;;18.30;92.25
3844;BME280;1937;51.444;6.484;2023-08-24T01:43:18;68962.00;;;18.14;93.31
3844;BME280;1937;51.444;6.484;2023-08-24T01:45:48;68959.94;;;18.26;93.04
3844;BME280;1937;51.444;6.484;2023-08-24T01:48:16;68960.50;;;18.26;93.58
3844;BME280;1937;51.444;6.484;2023-08-24T01:50:44;69004.00;;;18.28;93.83
3844;BME280;1937;51.444;6.484;2023-08-24T01:53:11;69002.44;;;18.35;93.70
3844;BME280;1937;51.444;6.484;2023-08-24T01:55:40;69028.72;;;18.45;93.40
3844;BME280;1937;51.444;6.484;2023-08-24T01:58:08;69008.47;;;18.45;93.30
3844;BME280;1937;51.444;6.484;2023-08-24T02:00:34;69013.00;;;18.29;93.85
3844;BME280;1937;51.444;6.484;2023-08-24T02:03:03;69030.19;;;18.32;93.94
3844;BME280;1937;51.444;6.484;2023-08-24T02:05:29;69053.97;;;18.57;91.87
3844;BME280;1937;51.444;6.484;2023-08-24T02:07:56;68998.63;;;18.46;91.69
3844;BME280;1937;51.444;6.484;2023-08-24T02:10:23;68976.56;;;18.18;93.30
3844;BME280;1937;51.444;6.484;2023-08-24T02:12:50;69014.81;;;18.19;93.89
3844;BME280;1937;51.444;6.484;2023-08-24T02:15:17;68943.75;;;18.03;94.67
3844;BME280;1937;51.444;6.484;2023-08-24T02:17:43;68949.56;;;18.04;95.05
3844;BME280;1937;51.444;6.484;2023-08-24T02:20:12;69004.41;;;18.08;95.00
3844;BME280;1937;51.444;6.484;2023-08-24T02:22:38;68980.72;;;18.10;95.51
3844;BME280;1937;51.444;6.484;2023-08-24T02:25:06;69028.78;;;18.22;95.33
3844;BME280;1937;51.444;6.484;2023-08-24T02:27:33;69063.50;;;18.21;95.67
3844;BME280;1937;51.444;6.484;2023-08-24T02:29:59;69041.81;;;18.22;95.54
3844;BME280;1937;51.444;6.484;2023-08-24T02:32:26;69035.09;;;18.19;95.67
3844;BME280;1937;51.444;6.484;2023-08-24T02:34:53;69101.88;;;18.27;95.73
3844;BME280;1937;51.444;6.484;2023-08-24T02:37:21;69076.66;;;18.36;95.74
3844;BME280;1937;51.444;6.484;2023-08-24T02:39:47;69115.50;;;18.38;95.97
3844;BME280;1937;51.444;6.484;2023-08-24T02:42:14;69151.91;;;18.45;95.85
3844;BME280;1937;51.444;6.484;2023-08-24T02:44:41;69158.41;;;18.51;95.94
3844;BME280;1937;51.444;6.484;2023-08-24T02:47:07;69184.50;;;18.51;95.89
3844;BME280;1937;51.444;6.484;2023-08-24T02:49:34;69119.78;;;18.47;95.22
3844;BME280;1937;51.444;6.484;2023-08-24T02:52:00;69120.72;;;18.38;94.58
3844;BME280;1937;51.444;6.484;2023-08-24T02:54:28;69160.19;;;18.63;92.64
3844;BME280;1937;51.444;6.484;2023-08-24T02:56:55;69141.81;;;18.70;91.54
3844;BME280;1937;51.444;6.484;2023-08-24T02:59:21;69100.94;;;18.46;92.04
3844;BME280;1937;51.444;6.484;2023-08-24T03:01:48;69052.84;;;18.23;93.84
3844;BME280;1937;51.444;6.484;2023-08-24T03:04:15;69056.63;;;18.24;94.99
3844;BME280;1937;51.444;6.484;2023-08-24T03:06:43;69084.69;;;18.34;95.04
3844;BME280;1937;51.444;6.484;2023-08-24T03:09:10;69090.88;;;18.26;94.91
3844;BME280;1937;51.444;6.484;2023-08-24T03:11:38;69107.47;;;18.29;95.01
3844;BME280;1937;51.444;6.484;2023-08-24T03:14:05;69107.34;;;18.36;94.78
3844;BME280;1937;51.444;6.484;2023-08-24T03:16:31;69103.91;;;18.37;94.37
3844;BME280;1937;51.444;6.484;2023-08-24T03:18:58;69121.22;;;18.34;94.39
3844;BME280;1937;51.444;6.484;2023-08-24T03:21:24;69081.03;;;18.27;95.20
3844;BME280;1937;51.444;6.484;2023-08-24T03:23:51;69132.22;;;18.35;95.64
3844;BME280;1937;51.444;6.484;2023-08-24T03:26:19;69175.63;;;18.43;95.62
3844;BME280;1937;51.444;6.484;2023-08-24T03:28:49;69191.50;;;18.63;94.80
3844;BME280;1937;51.444;6.484;2023-08-24T03:31:19;69200.88;;;18.67;94.75
3844;BME280;1937;51.444;6.484;2023-08-24T03:33:45;69255.19;;;18.71;94.70
3844;BME280;1937;51.444;6.484;2023-08-24T03:36:12;69209.66;;;18.70;94.75
3844;BME280;1937;51.444;6.484;2023-08-24T03:38:39;69194.72;;;18.64;94.63
3844;BME280;1937;51.444;6.484;2023-08-24T03:41:05;69210.34;;;18.75;94.21
3844;BME280;1937;51.444;6.484;2023-08-24T03:43:33;69261.81;;;18.92;92.94
3844;BME280;1937;51.444;6.484;2023-08-24T03:46:02;69283.91;;;19.04;91.84
3844;BME280;1937;51.444;6.484;2023-08-24T03:48:29;69246.66;;;18.88;92.46
3844;BME280;1937;51.444;6.484;2023-08-24T03:50:55;69160.31;;;18.68;93.42
3844;BME280;1937;51.444;6.484;2023-08-24T03:53:23;69157.25;;;18.61;94.25
3844;BME280;1937;51.444;6.484;2023-08-24T03:55:50;69191.41;;;18.59;94.85
3844;BME280;1937;51.444;6.484;2023-08-24T03:58:17;69178.81;;;18.66;94.66
3844;BME280;1937;51.444;6.484;2023-08-24T04:00:44;69190.81;;;18.58;95.64
3844;BME280;1937;51.444;6.484;2023-08-24T04:03:12;69202.31;;;18.55;96.09
3844;BME280;1937;51.444;6.484;2023-08-24T04:05:39;69269.06;;;18.69;96.55
3844;BME280;1937;51.444;6.484;2023-08-24T04:08:06;69252.94;;;18.62;96.81
3844;BME280;1937;51.444;6.484;2023-08-24T04:10:33;69272.97;;;18.64;96.82
3844;BME280;1937;51.444;6.484;2023-08-24T04:13:01;69249.50;;;18.64;96.89
3844;BME280;1937;51.444;6.484;2023-08-24T04:15:27;69267.72;;;18.53;98.60
3844;BME280;1937;51.444;6.484;2023-08-24T04:17:54;69265.34;;;18.51;99.19
3844;BME280;1937;51.444;6.484;2023-08-24T04:20:23;69357.59;;;18.54;100.00
3844;BME280;1937;51.444;6.484;2023-08-24T04:22:50;69309.47;;;18.53;99.71
3844;BME280;1937;51.444;6.484;2023-08-24T04:25:16;69310.97;;;18.45;100.00
3844;BME280;1937;51.444;6.484;2023-08-24T04:27:43;69362.22;;;18.53;100.00
3844;BME280;1937;51.444;6.484;2023-08-24T04:30:10;69440.09;;;18.79;99.01
3844;BME280;1937;51.444;6.484;2023-08-24T04:32:39;69470.97;;;18.84;97.34
3844;BME280;1937;51.444;6.484;2023-08-24T04:35:07;69327.44;;;18.72;97.46
3844;BME280;1937;51.444;6.484;2023-08-24T04:37:36;69370.94;;;18.74;98.17
3844;BME280;1937;51.444;6.484;2023-08-24T04:40:05;69345.78;;;18.66;98.87
3844;BME280;1937;51.444;6.484;2023-08-24T04:42:32;69417.81;;;18.80;98.85
3844;BME280;1937;51.444;6.484;2023-08-24T04:44:59;69459.38;;;18.94;98.57
3844;BME280;1937;51.444;6.484;2023-08-24T04:47:25;69461.06;;;19.02;98.44
3844;BME280;1937;51.444;6.484;2023-08-24T04:49:52;69477.69;;;19.05;98.17
3844;BME280;1937;51.444;6.484;2023-08-24T04:52:18;69473.44;;;19.08;97.96
3844;BME280;1937;51.444;6.484;2023-08-24T04:54:46;69510.47;;;19.15;97.76
3844;BME280;1937;51.444;6.484;2023-08-24T04:57:13;69509.38;;;19.07;97.38
3844;BME280;1937;51.444;6.484;2023-08-24T04:59:40;69512.84;;;19.17;97.18
3844;BME280;1937;51.444;6.484;2023-08-24T05:02:07;69482.47;;;19.20;97.21
3844;BME280;1937;51.444;6.484;2023-08-24T05:04:33;69475.00;;;19.22;96.21
3844;BME280;1937;51.444;6.484;2023-08-24T05:07:00;69452.91;;;19.21;95.73
3844;BME280;1937;51.444;6.484;2023-08-24T05:09:26;69514.66;;;19.30;95.21
3844;BME280;1937;51.444;6.484;2023-08-24T05:11:54;69491.88;;;19.35;95.16
3844;BME280;1937;51.444;6.484;2023-08-24T05:14:21;69396.53;;;19.07;95.00
3844;BME280;1937;51.444;6.484;2023-08-24T05:16:48;69458.13;;;19.21;95.62
3844;BME280;1937;51.444;6.484;2023-08-24T05:19:14;69474.28;;;19.17;95.77
3844;BME280;1937;51.444;6.484;2023-08-24T05:21:41;69418.75;;;19.23;95.38
3844;BME280;1937;51.444;6.484;2023-08-24T05:24:07;69488.56;;;19.30;94.68
3844;BME280;1937;51.444;6.484;2023-08-24T05:26:34;69545.09;;;19.38;94.78
3844;BME280;1937;51.444;6.484;2023-08-24T05:29:02;69440.19;;;19.13;94.81
3844;BME280;1937;51.444;6.484;2023-08-24T05:31:29;69419.91;;;19.13;95.71
3844;BME280;1937;51.444;6.484;2023-08-24T05:33:55;69496.59;;;19.28;95.65
3844;BME280;1937;51.444;6.484;2023-08-24T05:36:22;69492.28;;;19.48;94.68
3844;BME280;1937;51.444;6.484;2023-08-24T05:38:48;69597.19;;;19.62;94.49
3844;BME280;1937;51.444;6.484;2023-08-24T05:41:20;69532.09;;;19.49;94.93
3844;BME280;1937;51.444;6.484;2023-08-24T05:43:46;69541.59;;;19.57;94.67
3844;BME280;1937;51.444;6.484;2023-08-24T05:46:14;69615.28;;;19.75;93.79
3844;BME280;1937;51.444;6.484;2023-08-24T05:48:41;69590.94;;;19.77;93.59
3844;BME280;1937;51.444;6.484;2023-08-24T05:51:07;69579.44;;;19.80;92.47
3844;BME280;1937;51.444;6.484;2023-08-24T05:53:35;69615.81;;;19.93;91.84
3844;BME280;1937;51.444;6.484;2023-08-24T05:56:02;69604.41;;;19.90;92.17
3844;BME280;1937;51.444;6.484;2023-08-24T05:58:29;69583.50;;;19.90;92.56
3844;BME280;1937;51.444;6.484;2023-08-24T06:00:57;69653.78;;;20.10;92.27
3844;BME280;1937;51.444;6.484;2023-08-24T06:03:25;69691.97;;;20.14;92.17
3844;BME280;1937;51.444;6.484;2023-08-24T06:05:52;69674.13;;;20.21;92.14
3844;BME280;1937;51.444;6.484;2023-08-24T06:08:19;69722.88;;;20.18;93.19
3844;BME280;1937;51.444;6.484;2023-08-24T06:10:46;69731.97;;;20.30;92.48
3844;BME280;1937;51.444;6.484;2023-08-24T06:13:13;69739.16;;;20.36;91.91
3844;BME280;1937;51.444;6.484;2023-08-24T06:15:39;69744.19;;;20.49;90.95
3844;BME280;1937;51.444;6.484;2023-08-24T06:18:06;69778.06;;;20.73;89.88
3844;BME280;1937;51.444;6.484;2023-08-24T06:20:34;69748.66;;;20.73;89.22
3844;BME280;1937;51.444;6.484;2023-08-24T06:23:00;69779.03;;;20.88;88.70
3844;BME280;1937;51.444;6.484;2023-08-24T06:25:27;69831.91;;;20.95;89.14
3844;BME280;1937;51.444;6.484;2023-08-24T06:27:54;69800.41;;;21.01;88.92
3844;BME280;1937;51.444;6.484;2023-08-24T06:30:21;69846.16;;;21.13;87.42
3844;BME280;1937;51.444;6.484;2023-08-24T06:32:47;69841.06;;;21.18;86.49
3844;BME280;1937;51.444;6.484;2023-08-24T06:35:14;69805.38;;;21.03;87.30
3844;BME280;1937;51.444;6.484;2023-08-24T06:37:42;69860.91;;;21.10;86.76
3844;BME280;1937;51.444;6.484;2023-08-24T06:40:10;69751.56;;;21.04;86.46
3844;BME280;1937;51.444;6.484;2023-08-24T06:42:37;69753.59;;;20.93;87.48
3844;BME280;1937;51.444;6.484;2023-08-24T06:45:04;69754.78;;;21.05;87.48
3844;BME280;1937;51.444;6.484;2023-08-24T06:47:32;69868.59;;;21.23;87.65
3844;BME280;1937;51.444;6.484;2023-08-24T06:49:58;69827.75;;;21.31;85.92
3844;BME280;1937;51.444;6.484;2023-08-24T06:52:25;69834.31;;;21.37;85.07
3844;BME280;1937;51.444;6.484;2023-08-24T06:54:53;69846.00;;;21.38;84.75
3844;BME280;1937;51.444;6.484;2023-08-24T06:57:21;69812.53;;;21.38;85.10
3844;BME280;1937;51.444;6.484;2023-08-24T06:59:48;69670.75;;;21.07;84.20
3844;BME280;1937;51.444;6.484;2023-08-24T07:02:14;69738.19;;;21.35;84.41
3844;BME280;1937;51.444;6.484;2023-08-24T07:04:43;69802.91;;;21.48;83.67
3844;BME280;1937;51.444;6.484;2023-08-24T07:07:09;69823.06;;;21.60;82.81
3844;BME280;1937;51.444;6.484;2023-08-24T07:09:36;69820.44;;;21.72;81.86
3844;BME280;1937;51.444;6.484;2023-08-24T07:12:05;69821.97;;;21.75;81.31
3844;BME280;1937;51.444;6.484;2023-08-24T07:14:35;69882.25;;;22.04;78.74
3844;BME280;1937;51.444;6.484;2023-08-24T07:17:02;69823.69;;;21.94;80.11
3844;BME280;1937;51.444;6.484;2023-08-24T07:19:29;69758.72;;;21.84;80.40
3844;BME280;1937;51.444;6.484;2023-08-24T07:21:56;69872.47;;;22.09;80.51
3844;BME280;1937;51.444;6.484;2023-08-24T07:24:22;70009.19;;;22.18;80.41
3844;BME280;1937;51.444;6.484;2023-08-24T07:26:51;69916.63;;;22.35;80.33
3844;BME280;1937;51.444;6.484;2023-08-24T07:29:20;69921.88;;;22.35;79.16
3844;BME280;1937;51.444;6.484;2023-08-24T07:31:46;69931.44;;;22.55;78.56
3844;BME280;1937;51.444;6.484;2023-08-24T07:34:14;69932.41;;;22.58;77.69
3844;BME280;1937;51.444;6.484;2023-08-24T07:36:40;69932.16;;;22.60;76.95
3844;BME280;1937;51.444;6.484;2023-08-24T07:39:07;70024.97;;;22.92;77.08
3844;BME280;1937;51.444;6.484;2023-08-24T07:41:34;70079.13;;;23.17;77.02
3844;BME280;1937;51.444;6.484;2023-08-24T07:44:01;70173.31;;;23.33;76.91
3844;BME280;1937;51.444;6.484;2023-08-24T07:46:29;70275.72;;;23.68;76.50
3844;BME280;1937;51.444;6.484;2023-08-24T07:48:56;70286.47;;;24.06;73.21
3844;BME280;1937;51.444;6.484;2023-08-24T07:51:22;70372.16;;;24.45;70.04
3844;BME280;1937;51.444;6.484;2023-08-24T07:53:49;70477.28;;;24.87;71.03
3844;BME280;1937;51.444;6.484;2023-08-24T07:56:17;70547.41;;;25.19;68.12
3844;BME280;1937;51.444;6.484;2023-08-24T07:58:44;70795.34;;;26.01;65.56
3844;BME280;1937;51.444;6.484;2023-08-24T08:01:11;70889.03;;;26.31;65.12
3844;BME280;1937;51.444;6.484;2023-08-24T08:03:39;70896.91;;;26.67;62.59
3844;BME280;1937;51.444;6.484;2023-08-24T08:06:06;71008.88;;;27.05;62.60
3844;BME280;1937;51.444;6.484;2023-08-24T08:08:33;71239.59;;;27.72;61.01
3844;BME280;1937;51.444;6.484;2023-08-24T08:11:00;71026.69;;;27.29;60.37
3844;BME280;1937;51.444;6.484;2023-08-24T08:13:27;71035.22;;;27.29;60.75
3844;BME280;1937;51.444;6.484;2023-08-24T08:16:00;70929.81;;;27.14;58.96
3844;BME280;1937;51.444;6.484;2023-08-24T08:18:28;71105.59;;;27.68;58.69
3844;BME280;1937;51.444;6.484;2023-08-24T08:20:56;71093.06;;;27.62;58.07
3844;BME280;1937;51.444;6.484;2023-08-24T08:23:23;70719.44;;;26.86;59.67
3844;BME280;1937;51.444;6.484;2023-08-24T08:25:50;70795.91;;;26.88;60.84
3844;BME280;1937;51.444;6.484;2023-08-24T08:28:17;70921.53;;;27.23;60.30
3844;BME280;1937;51.444;6.484;2023-08-24T08:30:44;71025.97;;;27.53;60.11
3844;BME280;1937;51.444;6.484;2023-08-24T08:33:10;71246.63;;;27.80;61.22
3844;BME280;1937;51.444;6.484;2023-08-24T08:35:38;71327.56;;;28.32;58.82
3844;BME280;1937;51.444;6.484;2023-08-24T08:38:07;71417.41;;;28.59;56.65
3844;BME280;1937;51.444;6.484;2023-08-24T08:40:36;71024.84;;;27.74;57.99
3844;BME280;1937;51.444;6.484;2023-08-24T08:43:03;71209.00;;;28.08;58.41
3844;BME280;1937;51.444;6.484;2023-08-24T08:45:30;71152.34;;;28.05;56.79
3844;BME280;1937;51.444;6.484;2023-08-24T08:47:57;71322.34;;;28.43;57.48
3844;BME280;1937;51.444;6.484;2023-08-24T08:50:25;71326.56;;;28.65;56.04
3844;BME280;1937;51.444;6.484;2023-08-24T08:52:52;71484.31;;;28.83;56.23
3844;BME280;1937;51.444;6.484;2023-08-24T08:55:20;71425.94;;;28.83;55.76
3844;BME280;1937;51.444;6.484;2023-08-24T08:57:48;71301.94;;;28.60;55.66
3844;BME280;1937;51.444;6.484;2023-08-24T09:00:16;71479.91;;;28.93;55.30
3844;BME280;1937;51.444;6.484;2023-08-24T09:02:44;71236.88;;;28.43;55.87
3844;BME280;1937;51.444;6.484;2023-08-24T09:05:11;71453.81;;;29.07;55.55
3844;BME280;1937;51.444;6.484;2023-08-24T09:07:39;71489.69;;;29.12;54.16
3844;BME280;1937;51.444;6.484;2023-08-24T09:10:07;71772.63;;;29.78;54.96
3844;BME280;1937;51.444;6.484;2023-08-24T09:12:35;71693.97;;;29.74;53.37
3844;BME280;1937;51.444;6.484;2023-08-24T09:15:03;71602.53;;;29.42;53.70
3844;BME280;1937;51.444;6.484;2023-08-24T09:17:31;71646.03;;;29.45;55.13
3844;BME280;1937;51.444;6.484;2023-08-24T09:19:59;71820.38;;;29.91;53.97
3844;BME280;1937;51.444;6.484;2023-08-24T09:22:26;71762.69;;;29.89;53.45
3844;BME280;1937;51.444;6.484;2023-08-24T09:24:53;71761.44;;;29.95;53.24
3844;BME280;1937;51.444;6.484;2023-08-24T09:27:21;71808.66;;;30.19;52.42
3844;BME280;1937;51.444;6.484;2023-08-24T09:29:50;71810.22;;;30.04;52.87
3844;BME280;1937;51.444;6.484;2023-08-24T09:32:22;71517.56;;;29.42;54.68
3844;BME280;1937;51.444;6.484;2023-08-24T09:34:49;71426.81;;;29.11;56.34
3844;BME280;1937;51.444;6.484;2023-08-24T09:37:16;71583.06;;;29.50;55.21
3844;BME280;1937;51.444;6.484;2023-08-24T09:39:42;71630.47;;;29.65;53.08
3844;BME280;1937;51.444;6.484;2023-08-24T09:42:09;71464.56;;;29.29;54.44
3844;BME280;1937;51.444;6.484;2023-08-24T09:44:36;71459.88;;;29.29;54.62
3844;BME280;1937;51.444;6.484;2023-08-24T09:47:10;71499.16;;;29.22;55.25
3844;BME280;1937;51.444;6.484;2023-08-24T09:49:37;71664.75;;;29.74;53.97
3844;BME280;1937;51.444;6.484;2023-08-24T09:52:06;71496.78;;;29.38;53.82
3844;BME280;1937;51.444;6.484;2023-08-24T09:54:36;71300.06;;;28.94;54.24
3844;BME280;1937;51.444;6.484;2023-08-24T09:57:05;71517.16;;;29.40;54.03
3844;BME280;1937;51.444;6.484;2023-08-24T09:59:34;71648.34;;;29.78;53.97
3844;BME280;1937;51.444;6.484;2023-08-24T10:02:01;71523.94;;;29.39;55.93
3844;BME280;1937;51.444;6.484;2023-08-24T10:04:34;71682.00;;;29.86;53.67
3844;BME280;1937;51.444;6.484;2023-08-24T10:07:05;71609.09;;;29.79;54.85
3844;BME280;1937;51.444;6.484;2023-08-24T10:09:36;71821.41;;;30.11;52.50
3844;BME280;1937;51.444;6.484;2023-08-24T10:12:06;71894.03;;;30.34;52.12
3844;BME280;1937;51.444;6.484;2023-08-24T10:14:41;71900.31;;;30.44;51.85
3844;BME280;1937;51.444;6.484;2023-08-24T10:17:11;71773.13;;;30.33;50.67
3844;BME280;1937;51.444;6.484;2023-08-24T10:19:39;71702.38;;;30.12;51.43
3844;BME280;1937;51.444;6.484;2023-08-24T10:22:07;71550.09;;;29.71;52.56
3844;BME280;1937;51.444;6.484;2023-08-24T10:24:35;71499.09;;;29.64;53.02
3844;BME280;1937;51.444;6.484;2023-08-24T10:27:02;71522.22;;;29.77;51.91
3844;BME280;1937;51.444;6.484;2023-08-24T10:29:29;71567.34;;;29.66;52.59
3844;BME280;1937;51.444;6.484;2023-08-24T10:31:56;71497.06;;;29.47;53.20
3844;BME280;1937;51.444;6.484;2023-08-24T10:34:23;71587.97;;;29.83;54.55
3844;BME280;1937;51.444;6.484;2023-08-24T10:36:52;71773.97;;;30.32;51.19
3844;BME280;1937;51.444;6.484;2023-08-24T10:39:26;71598.69;;;29.77;54.18
3844;BME280;1937;51.444;6.484;2023-08-24T10:41:53;71633.69;;;29.90;52.54
3844;BME280;1937;51.444;6.484;2023-08-24T10:44:21;71639.94;;;30.00;52.25
3844;BME280;1937;51.444;6.484;2023-08-24T10:47:11;71760.66;;;30.32;51.82
3844;BME280;1937;51.444;6.484;2023-08-24T10:49:38;71882.41;;;30.56;51.33
3844;BME280;1937;51.444;6.484;2023-08-24T10:52:20;71862.91;;;30.39;52.99
3844;BME280;1937;51.444;6.484;2023-08-24T10:54:47;71690.75;;;30.09;53.73
3844;BME280;1937;51.444;6.484;2023-08-24T10:57:22;71585.09;;;29.85;52.66
3844;BME280;1937;51.444;6.484;2023-08-24T10:59:59;71399.97;;;29.37;53.02
3844;BME280;1937;51.444;6.484;2023-08-24T11:02:26;71412.31;;;29.45;53.82
3844;BME280;1937;51.444;6.484;2023-08-24T11:05:14;71261.38;;;29.01;54.13
3844;BME280;1937;51.444;6.484;2023-08-24T11:07:53;71199.91;;;28.76;55.44
3844;BME280;1937;51.444;6.484;2023-08-24T11:10:21;71173.16;;;28.78;55.53
3844;BME280;1937;51.444;6.484;2023-08-24T11:13:07;71397.69;;;29.22;55.14
3844;BME280;1937;51.444;6.484;2023-08-24T11:15:37;71317.38;;;29.10;56.13
3844;BME280;1937;51.444;6.484;2023-08-24T11:18:14;71185.59;;;28.80;54.51
3844;BME280;1937;51.444;6.484;2023-08-24T11:20:45;71133.84;;;28.74;55.85
3844;BME280;1937;51.444;6.484;2023-08-24T11:23:14;70927.75;;;28.06;56.80
3844;BME280;1937;51.444;6.484;2023-08-24T11:25:41;70962.00;;;28.19;56.58
3844;BME280;1937;51.444;6.484;2023-08-24T11:28:08;70979.66;;;28.09;57.31
3844;BME280;1937;51.444;6.484;2023-08-24T11:30:35;70954.88;;;28.18;57.39
3844;BME280;1937;51.444;6.484;2023-08-24T11:33:02;71104.00;;;28.23;58.30
3844;BME280;1937;51.444;6.484;2023-08-24T11:35:35;71030.78;;;28.26;58.52
3844;BME280;1937;51.444;6.484;2023-08-24T11:38:02;70929.28;;;27.98;58.63
3844;BME280;1937;51.444;6.484;2023-08-24T11:40:30;70908.69;;;27.88;59.70
3844;BME280;1937;51.444;6.484;2023-08-24T11:42:57;70870.88;;;27.83;60.18
3844;BME280;1937;51.444;6.484;2023-08-24T11:45:24;71058.25;;;28.29;59.74
3844;BME280;1937;51.444;6.484;2023-08-24T11:47:56;71228.41;;;28.65;58.97
3844;BME280;1937;51.444;6.484;2023-08-24T11:50:24;71311.44;;;28.99;57.98
3844;BME280;1937;51.444;6.484;2023-08-24T11:52:52;71374.25;;;29.18;56.16
3844;BME280;1937;51.444;6.484;2023-08-24T11:55:21;71474.09;;;29.39;56.84
3844;BME280;1937;51.444;6.484;2023-08-24T11:57:49;71598.91;;;29.75;55.96
3844;BME280;1937;51.444;6.484;2023-08-24T12:00:16;71595.19;;;29.78;55.50
3844;BME280;1937;51.444;6.484;2023-08-24T12:02:43;71713.06;;;30.05;55.00
3844;BME280;1937;51.444;6.484;2023-08-24T12:05:20;71465.94;;;29.52;55.75
3844;BME280;1937;51.444;6.484;2023-08-24T12:07:47;71247.16;;;28.98;57.05
3844;BME280;1937;51.444;6.484;2023-08-24T12:10:14;71078.00;;;28.30;59.09
3844;BME280;1937;51.444;6.484;2023-08-24T12:12:41;71037.03;;;28.29;60.42
3844;BME280;1937;51.444;6.484;2023-08-24T12:15:15;71014.47;;;28.12;60.91
3844;BME280;1937;51.444;6.484;2023-08-24T12:17:45;71013.13;;;28.06;61.40
3844;BME280;1937;51.444;6.484;2023-08-24T12:20:19;70876.41;;;27.69;62.69
3844;BME280;1937;51.444;6.484;2023-08-24T12:22:50;70816.69;;;27.48;63.67
3844;BME280;1937;51.444;6.484;2023-08-24T12:25:17;70844.50;;;27.54;64.78
3844;BME280;1937;51.444;6.484;2023-08-24T12:27:44;70779.00;;;27.14;68.57
3844;BME280;1937;51.444;6.484;2023-08-24T12:30:12;70782.47;;;26.91;71.81
3844;BME280;1937;51.444;6.484;2023-08-24T12:32:43;70815.94;;;26.81;73.68
3844;BME280;1937;51.444;6.484;2023-08-24T12:35:10;70834.00;;;26.85;71.79
3844;BME280;1937;51.444;6.484;2023-08-24T12:37:36;70921.06;;;26.98;73.13
3844;BME280;1937;51.444;6.484;2023-08-24T12:40:03;70900.16;;;26.96;72.66
3844;BME280;1937;51.444;6.484;2023-08-24T12:42:31;70951.63;;;26.97;73.52
3844;BME280;1937;51.444;6.484;2023-08-24T12:44:57;71044.03;;;26.93;72.57
3844;BME280;1937;51.444;6.484;2023-08-24T12:47:25;70953.06;;;26.96;73.44
3844;BME280;1937;51.444;6.484;2023-08-24T12:49:52;70940.38;;;26.85;72.88
3844;BME280;1937;51.444;6.484;2023-08-24T12:52:20;70967.13;;;26.95;72.38
3844;BME280;1937;51.444;6.484;2023-08-24T12:54:47;71008.97;;;26.99;73.40
3844;BME280;1937;51.444;6.484;2023-08-24T12:57:14;70912.28;;;26.88;71.71
3844;BME280;1937;51.444;6.484;2023-08-24T12:59:40;71025.06;;;26.79;72.79
3844;BME280;1937;51.444;6.484;2023-08-24T13:02:07;70919.06;;;26.81;73.07
3844;BME280;1937;51.444;6.484;2023-08-24T13:04:35;71079.41;;;27.13;71.10
3844;BME280;1937;51.444;6.484;2023-08-24T13:07:02;70990.97;;;27.06;71.45
3844;BME280;1937;51.444;6.484;2023-08-24T13:09:29;71109.72;;;27.32;70.28
3844;BME280;1937;51.444;6.484;2023-08-24T13:11:57;71063.50;;;27.31;68.88
3844;BME280;1937;51.444;6.484;2023-08-24T13:14:24;71038.38;;;27.37;67.59
3844;BME280;1937;51.444;6.484;2023-08-24T13:16:50;70990.47;;;27.27;66.75
3844;BME280;1937;51.444;6.484;2023-08-24T13:19:17;70840.66;;;27.02;67.10
3844;BME280;1937;51.444;6.484;2023-08-24T13:21:45;71013.31;;;27.24;67.78
3844;BME280;1937;51.444;6.484;2023-08-24T13:24:12;71018.88;;;27.34;67.36
3844;BME280;1937;51.444;6.484;2023-08-24T13:26:38;71062.25;;;27.48;67.14